createdAt,value
2022-09-04T00:00:15.868Z,60.20
2022-09-04T00:02:27.959Z,60.10
2022-09-04T00:04:39.665Z,60.30
2022-09-04T00:06:56.431Z,60.20
2022-09-04T00:09:12.136Z,60.30
2022-09-04T00:11:26.745Z,60.10
2022-09-04T00:13:34.588Z,59.80
2022-09-04T00:15:43.204Z,59.90
2022-09-04T00:17:51.114Z,60.50
2022-09-04T00:19:59.431Z,60.00
2022-09-04T00:22:06.274Z,60.00
2022-09-04T00:24:15.566Z,60.10
2022-09-04T00:26:29.916Z,60.20
2022-09-04T00:28:38.936Z,60.50
2022-09-04T00:30:50.371Z,60.30
2022-09-04T00:33:00.078Z,60.40
2022-09-04T00:35:11.285Z,60.30
2022-09-04T00:37:21.406Z,60.20
2022-09-04T00:39:34.669Z,60.20
2022-09-04T00:41:51.959Z,60.30
2022-09-04T00:44:26.505Z,60.40
2022-09-04T00:46:49.043Z,60.50
2022-09-04T00:49:25.005Z,60.50
2022-09-04T00:51:38.892Z,60.60
2022-09-04T00:53:59.288Z,60.40
2022-09-04T00:56:27.917Z,60.50
2022-09-04T00:58:40.587Z,60.50
2022-09-04T01:00:47.786Z,60.50
2022-09-04T01:03:11.262Z,60.50
2022-09-04T01:05:28.422Z,60.70
2022-09-04T01:07:47.561Z,60.60
2022-09-04T01:10:26.599Z,60.60
2022-09-04T01:12:38.825Z,60.60
2022-09-04T01:14:46.532Z,60.90
2022-09-04T01:17:00.605Z,61.00
2022-09-04T01:19:16.797Z,61.10
2022-09-04T01:21:56.862Z,61.20
2022-09-04T01:24:26.390Z,61.30
2022-09-04T01:26:41.124Z,61.20
2022-09-04T01:28:53.559Z,61.20
2022-09-04T01:31:03.238Z,61.30
2022-09-04T01:33:13.787Z,61.40
2022-09-04T01:35:25.725Z,61.40
2022-09-04T01:37:42.232Z,61.40
2022-09-04T01:39:49.833Z,61.40
2022-09-04T01:41:59.690Z,61.50
2022-09-04T01:44:05.901Z,61.50
2022-09-04T01:46:23.282Z,61.60
2022-09-04T01:48:37.598Z,61.90
2022-09-04T01:50:44.995Z,61.90
2022-09-04T01:52:55.854Z,61.80
2022-09-04T01:55:09.346Z,61.90
2022-09-04T01:57:25.091Z,62.00
2022-09-04T01:59:33.588Z,62.10
2022-09-04T02:01:42.523Z,62.00
2022-09-04T02:03:54.166Z,62.10
2022-09-04T02:06:06.121Z,62.10
2022-09-04T02:08:25.139Z,62.80
2022-09-04T02:10:34.476Z,62.30
2022-09-04T02:12:51.026Z,62.40
2022-09-04T02:15:04.227Z,62.30
2022-09-04T02:17:14.387Z,62.20
2022-09-04T02:19:30.039Z,62.30
2022-09-04T02:21:37.295Z,62.30
2022-09-04T02:23:48.819Z,62.40
2022-09-04T02:25:58.106Z,62.30
2022-09-04T02:28:19.517Z,62.30
2022-09-04T02:30:22.676Z,62.50
2022-09-04T02:32:32.330Z,62.50
2022-09-04T02:34:43.775Z,62.50
2022-09-04T02:36:54.328Z,62.40
2022-09-04T02:39:03.862Z,62.40
2022-09-04T02:41:15.621Z,62.40
2022-09-04T02:43:39.571Z,62.30
2022-09-04T02:45:49.487Z,62.40
2022-09-04T02:48:00.132Z,62.50
2022-09-04T02:50:13.427Z,62.50
2022-09-04T02:52:33.549Z,62.60
2022-09-04T02:54:50.222Z,62.70
2022-09-04T02:57:01.758Z,62.70
2022-09-04T02:59:28.873Z,62.80
2022-09-04T03:01:38.499Z,62.90
2022-09-04T03:03:47.964Z,63.00
2022-09-04T03:05:54.063Z,63.10
2022-09-04T03:08:02.493Z,63.10
2022-09-04T03:10:12.773Z,63.30
2022-09-04T03:12:30.749Z,63.20
2022-09-04T03:14:41.250Z,63.10
2022-09-04T03:16:52.681Z,63.20
2022-09-04T03:19:05.069Z,63.30
2022-09-04T03:21:16.563Z,63.50
2022-09-04T03:23:22.224Z,63.60
2022-09-04T03:25:52.979Z,63.70
2022-09-04T03:27:55.780Z,63.80
2022-09-04T03:30:05.014Z,63.90
2022-09-04T03:32:16.947Z,63.90
2022-09-04T03:34:29.452Z,64.00
2022-09-04T03:36:41.167Z,64.00
2022-09-04T03:38:52.926Z,64.00
2022-09-04T03:41:06.288Z,64.20
2022-09-04T03:43:31.646Z,64.20
2022-09-04T03:45:47.363Z,64.20
2022-09-04T03:48:06.354Z,64.30
2022-09-04T03:50:22.083Z,64.40
2022-09-04T03:52:35.479Z,64.40
2022-09-04T03:55:03.523Z,64.50
2022-09-04T03:57:23.042Z,64.60
2022-09-04T03:59:40.023Z,64.60
2022-09-04T04:01:51.990Z,64.60
2022-09-04T04:04:21.887Z,64.60
2022-09-04T04:06:34.174Z,65.00
2022-09-04T04:09:10.433Z,64.90
2022-09-04T04:11:26.475Z,65.10
2022-09-04T04:13:56.188Z,64.90
2022-09-04T04:16:12.561Z,64.90
2022-09-04T04:18:42.511Z,64.90
2022-09-04T04:20:56.101Z,65.10
2022-09-04T04:23:17.811Z,65.00
2022-09-04T04:25:52.261Z,65.30
2022-09-04T04:28:13.033Z,65.40
2022-09-04T04:30:18.249Z,65.40
2022-09-04T04:32:43.946Z,65.60
2022-09-04T04:35:03.574Z,65.90
2022-09-04T04:37:13.468Z,65.90
2022-09-04T04:39:25.770Z,65.90
2022-09-04T04:42:07.883Z,66.00
2022-09-04T04:44:16.143Z,66.20
2022-09-04T04:46:29.052Z,66.10
2022-09-04T04:48:54.935Z,66.10
2022-09-04T04:51:08.994Z,66.30
2022-09-04T04:53:20.236Z,66.40
2022-09-04T04:55:38.679Z,66.40
2022-09-04T04:58:16.345Z,66.60
2022-09-04T05:00:27.464Z,66.60
2022-09-04T05:02:35.625Z,66.40
2022-09-04T05:04:46.164Z,66.40
2022-09-04T05:06:55.827Z,66.80
2022-09-04T05:09:08.788Z,66.80
2022-09-04T05:11:19.593Z,66.90
2022-09-04T05:13:31.016Z,66.90
2022-09-04T05:15:53.187Z,67.00
2022-09-04T05:18:08.357Z,66.90
2022-09-04T05:20:29.386Z,67.10
2022-09-04T05:22:39.833Z,67.40
2022-09-04T05:24:54.144Z,67.40
2022-09-04T05:27:07.283Z,67.40
2022-09-04T05:29:19.644Z,67.40
2022-09-04T05:31:31.804Z,67.30
2022-09-04T05:33:40.515Z,67.40
2022-09-04T05:35:50.108Z,67.50
2022-09-04T05:38:03.300Z,67.60
2022-09-04T05:40:13.885Z,67.50
2022-09-04T05:42:48.127Z,67.60
2022-09-04T05:44:59.530Z,67.60
2022-09-04T05:47:12.483Z,67.60
2022-09-04T05:49:26.754Z,67.50
2022-09-04T05:51:46.258Z,67.50
2022-09-04T05:54:13.621Z,67.60
2022-09-04T05:56:46.634Z,67.80
2022-09-04T05:59:16.050Z,67.80
2022-09-04T06:01:52.246Z,67.80
2022-09-04T06:04:31.007Z,67.70
2022-09-04T06:06:40.800Z,67.80
2022-09-04T06:08:58.175Z,67.90
2022-09-04T06:11:21.817Z,67.90
2022-09-04T06:13:42.117Z,68.00
2022-09-04T06:15:57.457Z,67.90
2022-09-04T06:18:16.402Z,67.90
2022-09-04T06:20:40.756Z,68.00
2022-09-04T06:23:03.107Z,68.00
2022-09-04T06:25:34.019Z,67.90
2022-09-04T06:27:52.673Z,67.60
2022-09-04T06:30:06.408Z,67.90
2022-09-04T06:32:41.772Z,67.90
2022-09-04T06:35:14.402Z,67.80
2022-09-04T06:37:26.051Z,67.60
2022-09-04T06:39:50.840Z,67.60
2022-09-04T06:42:07.471Z,67.70
2022-09-04T06:44:25.043Z,67.70
2022-09-04T06:46:38.852Z,68.00
2022-09-04T06:48:53.174Z,68.30
2022-09-04T06:51:08.836Z,68.50
2022-09-04T06:53:21.306Z,68.70
2022-09-04T06:55:33.872Z,68.40
2022-09-04T06:57:54.091Z,68.50
2022-09-04T07:00:07.981Z,68.50
2022-09-04T07:02:22.796Z,68.50
2022-09-04T07:04:37.545Z,68.60
2022-09-04T07:06:52.454Z,68.70
2022-09-04T07:09:05.428Z,68.70
2022-09-04T07:11:20.054Z,68.80
2022-09-04T07:13:40.394Z,69.00
2022-09-04T07:16:18.235Z,69.20
2022-09-04T07:18:35.003Z,69.20
2022-09-04T07:20:47.120Z,69.80
2022-09-04T07:23:12.300Z,69.30
2022-09-04T07:25:20.216Z,69.50
2022-09-04T07:27:36.336Z,69.40
2022-09-04T07:29:46.082Z,69.40
2022-09-04T07:32:00.008Z,69.10
2022-09-04T07:34:11.728Z,69.20
2022-09-04T07:36:18.878Z,68.90
2022-09-04T07:38:35.590Z,68.50
2022-09-04T07:40:43.753Z,68.90
2022-09-04T07:42:57.432Z,68.30
2022-09-04T07:45:06.015Z,68.20
2022-09-04T07:47:19.533Z,67.90
2022-09-04T07:49:32.595Z,67.60
2022-09-04T07:51:40.981Z,66.90
2022-09-04T07:54:11.507Z,66.90
2022-09-04T07:56:36.150Z,66.50
2022-09-04T07:59:00.329Z,66.80
2022-09-04T08:01:26.802Z,66.50
2022-09-04T08:03:54.322Z,66.40
2022-09-04T08:06:04.424Z,66.30
2022-09-04T08:08:54.402Z,66.20
2022-09-04T08:11:38.175Z,66.00
2022-09-04T08:14:05.051Z,66.10
2022-09-04T08:16:09.549Z,66.10
2022-09-04T08:18:35.477Z,66.10
2022-09-04T08:20:52.767Z,66.10
2022-09-04T08:23:04.117Z,65.80
2022-09-04T08:25:17.971Z,65.90
2022-09-04T08:27:36.029Z,65.60
2022-09-04T08:30:00.505Z,65.60
2022-09-04T08:32:18.101Z,66.00
2022-09-04T08:34:46.795Z,65.30
2022-09-04T08:37:02.602Z,65.20
2022-09-04T08:39:10.559Z,65.20
2022-09-04T08:42:01.508Z,65.30
2022-09-04T08:44:41.538Z,65.00
2022-09-04T08:47:17.769Z,64.40
2022-09-04T08:49:59.722Z,64.70
2022-09-04T08:52:32.487Z,65.00
2022-09-04T08:55:07.323Z,64.80
2022-09-04T08:57:36.782Z,64.70
2022-09-04T09:00:07.113Z,64.70
2022-09-04T09:02:43.447Z,64.90
2022-09-04T09:05:29.273Z,64.50
2022-09-04T09:08:01.166Z,64.70
2022-09-04T09:10:36.729Z,63.80
2022-09-04T09:13:09.284Z,64.00
2022-09-04T09:15:37.263Z,63.70
2022-09-04T09:17:53.900Z,63.40
2022-09-04T09:20:01.248Z,63.20
2022-09-04T09:22:12.436Z,63.00
2022-09-04T09:24:53.872Z,63.00
2022-09-04T09:27:16.027Z,63.00
2022-09-04T09:29:44.002Z,63.10
2022-09-04T09:32:28.871Z,62.50
2022-09-04T09:35:16.734Z,61.40
2022-09-04T09:37:34.967Z,62.10
2022-09-04T09:40:10.485Z,61.90
2022-09-04T09:42:39.959Z,61.80
2022-09-04T09:45:06.280Z,61.60
2022-09-04T09:47:48.577Z,61.20
2022-09-04T09:50:13.296Z,60.80
2022-09-04T09:52:49.416Z,61.80
2022-09-04T09:55:25.267Z,61.90
2022-09-04T09:57:56.052Z,61.60
2022-09-04T10:00:09.507Z,61.60
2022-09-04T10:03:00.425Z,61.40
2022-09-04T10:05:37.521Z,61.30
2022-09-04T10:08:15.199Z,60.70
2022-09-04T10:10:58.071Z,61.00
2022-09-04T10:13:34.830Z,60.90
2022-09-04T10:15:55.005Z,60.90
2022-09-04T10:18:26.542Z,60.60
2022-09-04T10:20:55.426Z,60.90
2022-09-04T10:23:29.393Z,60.70
2022-09-04T10:25:58.934Z,60.10
2022-09-04T10:28:33.021Z,59.70
2022-09-04T10:30:54.610Z,59.00
2022-09-04T10:33:22.263Z,59.40
2022-09-04T10:35:28.432Z,59.30
2022-09-04T10:37:54.354Z,59.60
2022-09-04T10:40:28.755Z,59.40
2022-09-04T10:42:46.115Z,59.30
2022-09-04T10:45:11.859Z,59.30
2022-09-04T10:47:28.947Z,59.20
2022-09-04T10:49:47.686Z,59.40
2022-09-04T10:52:14.257Z,59.10
2022-09-04T10:54:50.853Z,58.80
2022-09-04T10:57:05.667Z,59.20
2022-09-04T10:59:37.893Z,59.60
2022-09-04T11:02:03.630Z,59.10
2022-09-04T11:04:46.230Z,58.90
2022-09-04T11:07:18.818Z,58.20
2022-09-04T11:09:40.290Z,58.20
2022-09-04T11:12:09.373Z,58.40
2022-09-04T11:14:34.673Z,58.70
2022-09-04T11:17:09.360Z,58.60
2022-09-04T11:19:43.367Z,58.60
2022-09-04T11:22:23.179Z,59.00
2022-09-04T11:25:01.806Z,59.30
2022-09-04T11:27:50.059Z,59.10
2022-09-04T11:30:03.515Z,58.00
2022-09-04T11:32:26.229Z,58.60
2022-09-04T11:35:07.720Z,58.50
2022-09-04T11:37:36.616Z,57.70
2022-09-04T11:40:11.019Z,58.00
2022-09-04T11:42:32.960Z,57.90
2022-09-04T11:45:03.750Z,57.90
2022-09-04T11:47:37.585Z,58.10
2022-09-04T11:50:05.669Z,58.30
2022-09-04T11:52:28.491Z,58.80
2022-09-04T11:55:09.551Z,57.80
2022-09-04T11:57:23.999Z,57.30
2022-09-04T11:59:44.716Z,57.50
2022-09-04T12:02:18.923Z,57.00
2022-09-04T12:04:43.887Z,57.60
2022-09-04T12:07:02.468Z,57.80
2022-09-04T12:09:36.582Z,58.20
2022-09-04T12:12:05.870Z,58.10
2022-09-04T12:14:23.962Z,58.30
2022-09-04T12:16:55.777Z,58.00
2022-09-04T12:21:41.025Z,57.10
2022-09-04T12:24:15.184Z,56.90
2022-09-04T12:26:59.734Z,56.50
2022-09-04T12:29:50.370Z,55.50
2022-09-04T12:32:15.276Z,56.00
2022-09-04T12:34:41.315Z,56.30
2022-09-04T12:37:12.369Z,56.20
2022-09-04T12:39:50.263Z,56.40
2022-09-04T12:42:02.170Z,56.20
2022-09-04T12:44:13.626Z,56.20
2022-09-04T12:46:30.950Z,56.10
2022-09-04T12:48:41.882Z,56.60
2022-09-04T12:50:51.491Z,56.80
2022-09-04T12:53:49.278Z,56.30
2022-09-04T12:56:05.727Z,56.00
2022-09-04T12:58:21.262Z,56.30
2022-09-04T13:00:40.789Z,56.40
2022-09-04T13:03:01.192Z,56.40
2022-09-04T13:05:27.295Z,56.00
2022-09-04T13:07:41.472Z,55.30
2022-09-04T13:09:55.953Z,55.40
2022-09-04T13:12:09.757Z,54.80
2022-09-04T13:14:31.947Z,54.70
2022-09-04T13:16:42.502Z,55.00
2022-09-04T13:18:58.732Z,55.20
2022-09-04T13:21:12.571Z,54.90
2022-09-04T13:23:28.585Z,54.60
2022-09-04T13:25:53.277Z,54.80
2022-09-04T13:28:06.781Z,54.60
2022-09-04T13:30:15.325Z,54.10
2022-09-04T13:32:36.952Z,53.60
2022-09-04T13:34:54.189Z,53.80
2022-09-04T13:37:06.927Z,54.10
2022-09-04T13:39:40.468Z,54.50
2022-09-04T13:42:24.907Z,54.50
2022-09-04T13:45:00.431Z,54.40
2022-09-04T13:47:09.050Z,54.50
2022-09-04T13:49:16.868Z,55.00
2022-09-04T13:51:25.031Z,55.00
2022-09-04T13:53:33.519Z,55.00
2022-09-04T13:55:39.707Z,55.30
2022-09-04T13:57:47.920Z,55.30
2022-09-04T13:59:53.420Z,55.50
2022-09-04T14:02:00.038Z,55.20
2022-09-04T14:04:08.564Z,55.60
2022-09-04T14:06:15.440Z,55.40
2022-09-04T14:08:18.833Z,55.50
2022-09-04T14:10:30.122Z,55.50
2022-09-04T14:12:53.797Z,55.40
2022-09-04T14:15:28.605Z,55.50
2022-09-04T14:17:39.379Z,55.30
2022-09-04T14:19:53.915Z,55.40
2022-09-04T14:22:24.018Z,55.10
2022-09-04T14:27:09.224Z,55.20
2022-09-04T14:29:23.832Z,55.20
2022-09-04T14:31:35.176Z,55.10
2022-09-04T14:32:06.751Z,55.40
2022-09-04T14:33:53.539Z,54.70
2022-09-04T14:36:06.655Z,55.00
2022-09-04T14:38:42.982Z,55.10
2022-09-04T14:40:56.653Z,54.60
2022-09-04T14:43:10.407Z,54.50
2022-09-04T14:45:24.491Z,54.70
2022-09-04T14:47:38.015Z,54.60
2022-09-04T14:49:47.324Z,54.60
2022-09-04T14:51:56.569Z,54.70
2022-09-04T14:53:59.979Z,54.50
2022-09-04T14:56:29.877Z,54.30
2022-09-04T14:58:36.818Z,54.00
2022-09-04T15:00:59.404Z,54.80
2022-09-04T15:03:08.736Z,54.90
2022-09-04T15:05:21.553Z,54.80
2022-09-04T15:07:35.248Z,54.70
2022-09-04T15:09:42.001Z,54.80
2022-09-04T15:11:45.414Z,54.90
2022-09-04T15:13:53.875Z,54.70
2022-09-04T15:16:06.766Z,54.80
2022-09-04T15:18:15.870Z,54.50
2022-09-04T15:20:23.437Z,54.90
2022-09-04T15:22:35.010Z,54.90
2022-09-04T15:24:48.912Z,54.60
2022-09-04T15:26:56.999Z,54.50
2022-09-04T15:29:08.122Z,54.50
2022-09-04T15:31:17.754Z,54.90
2022-09-04T15:33:22.353Z,54.50
2022-09-04T15:35:32.799Z,54.50
2022-09-04T15:37:36.784Z,54.30
2022-09-04T15:39:45.439Z,54.50
2022-09-04T15:41:50.802Z,54.40
2022-09-04T15:43:59.335Z,54.70
2022-09-04T15:46:07.473Z,54.70
2022-09-04T15:48:21.010Z,54.60
2022-09-04T15:50:27.479Z,54.60
2022-09-04T15:52:40.241Z,54.40
2022-09-04T15:55:22.172Z,54.30
2022-09-04T15:57:36.039Z,54.50
2022-09-04T15:59:49.686Z,54.50
2022-09-04T16:02:03.118Z,54.80
2022-09-04T16:04:17.158Z,54.50
2022-09-04T16:06:25.414Z,54.40
2022-09-04T16:08:33.499Z,54.70
2022-09-04T16:10:54.282Z,54.40
2022-09-04T16:13:02.177Z,54.10
2022-09-04T16:15:11.578Z,54.10
2022-09-04T16:17:21.217Z,54.50
2022-09-04T16:19:33.557Z,54.70
2022-09-04T16:21:45.364Z,54.70
2022-09-04T16:23:49.454Z,54.70
2022-09-04T16:25:53.057Z,54.80
2022-09-04T16:28:02.329Z,54.90
2022-09-04T16:30:06.703Z,55.00
2022-09-04T16:32:13.271Z,55.00
2022-09-04T16:34:28.492Z,55.10
2022-09-04T16:36:40.128Z,55.10
2022-09-04T16:38:47.772Z,54.90
2022-09-04T16:40:56.701Z,54.70
2022-09-04T16:43:09.648Z,54.80
2022-09-04T16:45:18.284Z,55.00
2022-09-04T16:47:27.242Z,55.00
2022-09-04T16:49:39.965Z,55.10
2022-09-04T16:51:47.630Z,55.00
2022-09-04T16:53:53.711Z,55.00
2022-09-04T16:55:59.996Z,55.00
2022-09-04T16:58:20.444Z,55.10
2022-09-04T17:00:52.568Z,55.30
2022-09-04T17:03:00.042Z,55.30
2022-09-04T17:05:28.345Z,55.30
2022-09-04T17:07:37.409Z,55.20
2022-09-04T17:10:01.761Z,55.30
2022-09-04T17:12:19.880Z,55.30
2022-09-04T17:14:31.704Z,55.30
2022-09-04T17:16:40.269Z,55.50
2022-09-04T17:18:48.375Z,55.60
2022-09-04T17:22:54.151Z,55.60
2022-09-04T17:28:57.471Z,55.60
2022-09-04T17:29:14.374Z,55.80
2022-09-04T17:29:15.231Z,55.70
2022-09-04T17:31:13.531Z,55.60
2022-09-04T17:37:07.837Z,55.80
2022-09-04T17:40:46.391Z,56.10
2022-09-04T17:41:31.052Z,55.90
2022-09-04T17:41:31.321Z,55.80
2022-09-04T17:44:01.938Z,56.10
2022-09-04T17:46:27.548Z,56.00
2022-09-04T17:48:33.540Z,55.70
2022-09-04T17:50:38.333Z,55.50
2022-09-04T17:52:59.639Z,55.50
2022-09-04T17:55:07.033Z,55.60
2022-09-04T17:57:16.377Z,55.50
2022-09-04T17:59:25.037Z,55.80
2022-09-04T18:01:33.893Z,55.70
2022-09-04T18:04:02.782Z,55.50
2022-09-04T18:06:13.699Z,55.50
2022-09-04T18:08:21.676Z,55.60
2022-09-04T18:10:31.412Z,55.80
2022-09-04T18:12:40.634Z,56.40
2022-09-04T18:15:13.352Z,56.10
2022-09-04T18:17:22.804Z,56.10
2022-09-04T18:19:32.588Z,56.30
2022-09-04T18:21:44.948Z,56.30
2022-09-04T18:23:55.651Z,56.40
2022-09-04T18:26:05.781Z,56.50
2022-09-04T18:28:15.082Z,56.70
2022-09-04T18:37:07.082Z,56.80
2022-09-04T18:37:07.985Z,56.70
2022-09-04T18:37:19.447Z,56.90
2022-09-04T18:37:47.894Z,57.00
2022-09-04T18:40:12.685Z,57.20
2022-09-04T18:47:11.590Z,57.30
2022-09-04T18:50:25.015Z,57.40
2022-09-04T18:50:30.654Z,57.50
2022-09-04T18:50:36.801Z,57.50
2022-09-04T18:52:30.341Z,57.50
2022-09-04T18:54:40.615Z,57.50
2022-09-04T18:56:47.882Z,57.50
2022-09-04T18:59:01.089Z,57.60
2022-09-04T19:01:11.237Z,57.70
2022-09-04T19:03:19.143Z,57.30
2022-09-04T19:05:24.167Z,57.40
2022-09-04T19:07:32.461Z,57.30
2022-09-04T19:09:55.878Z,57.50
2022-09-04T19:12:05.047Z,57.50
2022-09-04T19:14:15.329Z,57.50
2022-09-04T19:16:23.988Z,57.50
2022-09-04T19:18:34.460Z,57.60
2022-09-04T19:20:47.469Z,57.80
2022-09-04T19:22:54.808Z,57.80
2022-09-04T19:25:04.784Z,57.90
2022-09-04T19:27:27.291Z,58.10
2022-09-04T19:29:41.488Z,58.20
2022-09-04T19:31:53.030Z,58.40
2022-09-04T19:34:00.672Z,58.50
2022-09-04T19:36:09.212Z,58.70
2022-09-04T19:45:39.685Z,58.80
2022-09-04T19:45:54.953Z,59.00
2022-09-04T19:46:11.162Z,59.10
2022-09-04T19:46:25.690Z,59.30
2022-09-04T19:48:40.007Z,59.40
2022-09-04T19:53:34.342Z,59.50
2022-09-04T19:53:45.053Z,59.60
2022-09-04T19:55:56.268Z,59.80
2022-09-04T19:58:06.819Z,59.90
2022-09-04T20:00:33.674Z,60.10
2022-09-04T20:02:50.147Z,60.20
2022-09-04T20:04:56.537Z,60.30
2022-09-04T20:07:02.740Z,60.30
2022-09-04T20:09:13.653Z,60.50
2022-09-04T20:11:32.481Z,60.70
2022-09-04T20:13:43.433Z,60.70
2022-09-04T20:15:56.754Z,60.80
2022-09-04T20:18:10.029Z,61.00
2022-09-04T20:20:19.032Z,61.10
2022-09-04T20:22:33.914Z,61.00
2022-09-04T20:24:59.133Z,61.10
2022-09-04T20:27:15.675Z,61.20
2022-09-04T20:29:23.801Z,61.20
2022-09-04T20:31:37.056Z,61.20
2022-09-04T20:33:43.075Z,61.30
2022-09-04T20:35:50.542Z,61.30
2022-09-04T20:37:55.683Z,61.40
2022-09-04T20:40:07.563Z,61.50
2022-09-04T20:42:20.761Z,61.50
2022-09-04T20:44:29.337Z,61.60
2022-09-04T20:52:45.637Z,61.60
2022-09-04T20:52:55.063Z,61.70
2022-09-04T20:53:05.571Z,61.90
2022-09-04T20:54:12.075Z,61.80
2022-09-04T20:57:36.015Z,61.80
2022-09-04T21:03:18.415Z,61.70
2022-09-04T21:03:22.695Z,61.70
2022-09-04T21:04:41.802Z,61.90
2022-09-04T21:06:52.074Z,61.80
2022-09-04T21:09:04.004Z,61.80
2022-09-04T21:11:19.149Z,61.70
2022-09-04T21:13:39.272Z,61.60
2022-09-04T21:15:52.940Z,61.60
2022-09-04T21:18:20.250Z,61.50
2022-09-04T21:21:00.318Z,61.50
2022-09-04T21:23:25.741Z,61.50
2022-09-04T21:25:31.790Z,61.70
2022-09-04T21:28:05.544Z,61.60
2022-09-04T21:30:10.930Z,61.50
2022-09-04T21:32:30.636Z,61.40
2022-09-04T21:35:03.945Z,61.40
2022-09-04T21:37:17.224Z,61.30
2022-09-04T21:39:40.216Z,61.30
2022-09-04T21:41:55.373Z,61.20
2022-09-04T21:44:15.581Z,61.30
2022-09-04T21:46:52.800Z,61.20
2022-09-04T21:49:08.254Z,61.20
2022-09-04T21:51:33.285Z,61.10
2022-09-04T21:54:34.672Z,60.90
2022-09-04T22:02:29.569Z,61.00
2022-09-04T22:02:38.447Z,60.90
2022-09-04T22:02:51.314Z,60.90
2022-09-04T22:05:00.669Z,60.90
2022-09-04T22:10:25.089Z,61.60
2022-09-04T22:13:33.143Z,60.80
2022-09-04T22:13:39.072Z,60.70
2022-09-04T22:15:03.754Z,60.80
2022-09-04T22:17:15.599Z,60.70
2022-09-04T22:19:46.765Z,60.60
2022-09-04T22:22:09.451Z,60.70
2022-09-04T22:24:46.279Z,60.60
2022-09-04T22:27:25.895Z,60.60
2022-09-04T22:29:47.645Z,60.70
2022-09-04T22:32:20.092Z,60.70
2022-09-04T22:35:02.406Z,60.60
2022-09-04T22:37:44.059Z,60.50
2022-09-04T22:40:12.559Z,60.50
2022-09-04T22:42:48.000Z,60.50
2022-09-04T22:45:14.610Z,60.70
2022-09-04T22:47:33.529Z,60.70
2022-09-04T22:49:53.470Z,60.70
2022-09-04T22:52:18.697Z,60.60
2022-09-04T22:54:38.450Z,60.80
2022-09-04T22:56:54.146Z,60.90
2022-09-04T22:59:26.576Z,60.90
2022-09-04T23:01:52.102Z,60.90
2022-09-04T23:04:15.569Z,60.80
2022-09-04T23:09:42.906Z,60.90
2022-09-04T23:13:46.784Z,61.00
2022-09-04T23:13:49.924Z,61.00
2022-09-04T23:15:09.779Z,61.10
2022-09-04T23:17:28.108Z,61.20
2022-09-04T23:26:31.252Z,61.30
2022-09-04T23:26:42.066Z,61.10
2022-09-04T23:26:43.057Z,61.20
2022-09-04T23:27:44.529Z,61.20
2022-09-04T23:30:10.349Z,61.30
2022-09-04T23:32:34.542Z,61.20
2022-09-04T23:34:57.760Z,61.20
2022-09-04T23:37:41.347Z,61.30
2022-09-04T23:40:04.717Z,61.30
2022-09-04T23:42:25.456Z,61.40
2022-09-04T23:44:46.706Z,61.40
2022-09-04T23:47:22.410Z,61.30
2022-09-04T23:49:51.931Z,61.40
2022-09-04T23:52:03.137Z,61.30
2022-09-04T23:54:34.272Z,61.40
2022-09-04T23:56:44.392Z,61.50
2022-09-04T23:59:26.275Z,61.60
